Time;durP1;ratioP1;P1;durP2;ratioP2;P2;SDS_P1;SDS_P2;PMS_P1;PMS_P2;Temp;Humidity;BMP_temperature;BMP_pressure;BME280_temperature;BME280_humidity;BME280_pressure;Samples;Min_cycle;Max_cycle;Signal;HPM_P1;HPM_P2
2022/09/23 00:00:42;;;;;;;55.13;30.90;;;7.00;99.90;;;;;;5094805;28;20036;-55
2022/09/23 00:03:09;;;;;;;58.38;30.83;;;7.00;99.90;;;;;;5093542;28;20283;-55
2022/09/23 00:05:35;;;;;;;51.10;28.70;;;7.00;99.90;;;;;;5094826;28;20397;-55
2022/09/23 00:08:01;;;;;;;45.65;26.20;;;6.90;99.90;;;;;;5094745;28;20034;-55
2022/09/23 00:10:30;;;;;;;50.42;27.90;;;7.00;99.90;;;;;;5094610;28;20030;-55
2022/09/23 00:12:57;;;;;;;50.40;28.13;;;6.90;99.90;;;;;;5094609;28;20477;-55
2022/09/23 00:15:24;;;;;;;55.75;30.17;;;6.80;99.90;;;;;;5094577;28;20109;-55
2022/09/23 00:17:51;;;;;;;52.63;28.13;;;6.80;99.90;;;;;;5094599;28;20500;-55
2022/09/23 00:20:18;;;;;;;54.50;31.73;;;6.70;99.90;;;;;;5076336;28;20474;-55
2022/09/23 00:22:44;;;;;;;54.47;29.77;;;6.70;99.90;;;;;;5076541;28;20024;-55
2022/09/23 00:25:11;;;;;;;52.97;27.85;;;6.70;99.90;;;;;;5094364;28;20032;-55
2022/09/23 00:27:38;;;;;;;60.67;30.20;;;6.70;99.90;;;;;;5094524;28;20020;-55
2022/09/23 00:30:07;;;;;;;53.28;30.67;;;6.60;99.90;;;;;;5098551;28;20043;-55
2022/09/23 00:32:34;;;;;;;56.28;28.67;;;6.60;99.90;;;;;;5098875;28;20149;-55
2022/09/23 00:35:02;;;;;;;51.05;28.25;;;6.60;99.90;;;;;;5098596;28;20079;-55
2022/09/23 00:37:29;;;;;;;48.15;26.90;;;6.60;99.90;;;;;;5098615;28;20464;-55
2022/09/23 00:39:55;;;;;;;48.15;26.27;;;6.60;99.90;;;;;;5098460;28;20082;-55
2022/09/23 00:42:23;;;;;;;48.90;25.85;;;6.50;99.90;;;;;;5098418;28;20028;-55
2022/09/23 00:44:58;;;;;;;43.72;24.23;;;6.50;99.90;;;;;;5098419;28;20032;-55
2022/09/23 00:47:32;;;;;;;49.15;26.20;;;6.50;99.90;;;;;;5098417;28;20028;-55
2022/09/23 00:50:15;;;;;;;50.92;27.02;;;6.60;99.90;;;;;;5098301;28;20075;-55
2022/09/23 00:52:42;;;;;;;44.70;25.02;;;6.60;99.90;;;;;;5098436;28;20028;-55
2022/09/23 00:55:14;;;;;;;47.45;26.10;;;6.60;99.90;;;;;;5098411;28;20039;-55
2022/09/23 00:57:42;;;;;;;45.78;24.73;;;6.60;99.90;;;;;;5080105;28;20074;-55
2022/09/23 01:00:09;;;;;;;54.17;28.38;;;6.60;99.90;;;;;;5079901;28;20028;-55
2022/09/23 01:02:36;;;;;;;46.88;26.85;;;6.60;99.90;;;;;;5096807;28;20066;-55
2022/09/23 01:05:06;;;;;;;47.03;27.00;;;6.70;99.90;;;;;;5098146;28;20051;-55
2022/09/23 01:07:33;;;;;;;50.63;28.45;;;6.70;99.90;;;;;;5097962;28;20036;-55
2022/09/23 01:10:00;;;;;;;51.50;27.77;;;6.70;99.90;;;;;;5098091;28;20145;-55
2022/09/23 01:13:05;;;;;;;55.70;29.58;;;6.70;99.90;;;;;;5097852;28;20028;-55
2022/09/23 01:15:56;;;;;;;55.25;28.52;;;6.70;99.90;;;;;;5097842;28;20027;-55
2022/09/23 01:18:53;;;;;;;50.95;27.85;;;6.70;99.90;;;;;;5097706;28;20083;-55
2022/09/23 01:21:34;;;;;;;47.65;24.33;;;6.70;99.90;;;;;;5091560;28;20048;-55
2022/09/23 01:24:28;;;;;;;50.97;25.98;;;6.70;99.90;;;;;;5097811;28;20028;-55
2022/09/23 01:26:58;;;;;;;46.08;24.85;;;6.60;99.90;;;;;;5097977;28;20099;-55
2022/09/23 01:29:48;;;;;;;48.28;25.55;;;6.60;99.90;;;;;;5079408;28;20032;-55
2022/09/23 01:32:41;;;;;;;56.23;27.50;;;6.60;99.90;;;;;;5097584;28;20032;-55
2022/09/23 01:35:13;;;;;;;50.25;24.08;;;6.60;99.90;;;;;;5096463;28;20458;-55
2022/09/23 01:37:51;;;;;;;42.47;23.90;;;6.50;99.90;;;;;;5097517;28;20524;-55
2022/09/23 01:40:28;;;;;;;43.35;23.70;;;6.50;99.90;;;;;;5096000;28;20044;-55
2022/09/23 01:43:07;;;;;;;41.03;21.77;;;6.40;99.90;;;;;;5079156;28;20035;-55
2022/09/23 01:45:46;;;;;;;42.38;23.45;;;6.40;99.90;;;;;;5097335;28;20055;-55
2022/09/23 01:48:41;;;;;;;40.95;21.23;;;6.40;99.90;;;;;;5097203;28;20449;-55
2022/09/23 01:51:23;;;;;;;34.42;19.73;;;6.40;99.90;;;;;;5088827;28;20055;-55
2022/09/23 01:54:14;;;;;;;39.50;20.80;;;6.40;99.90;;;;;;5097617;28;20065;-55
2022/09/23 01:56:57;;;;;;;35.15;20.20;;;6.40;99.90;;;;;;5079268;28;20032;-55
2022/09/23 01:59:38;;;;;;;41.10;20.17;;;6.30;99.90;;;;;;5096968;28;20111;-55
2022/09/23 02:02:24;;;;;;;36.50;19.73;;;6.30;99.90;;;;;;5097139;28;20040;-55
2022/09/23 02:05:16;;;;;;;35.28;19.65;;;6.40;99.90;;;;;;5096992;28;20099;-55
2022/09/23 02:07:52;;;;;;;33.05;17.92;;;6.40;99.90;;;;;;5095003;28;20028;-55
2022/09/23 02:10:24;;;;;;;30.90;18.65;;;6.50;99.90;;;;;;5078667;28;20081;-55
2022/09/23 02:12:56;;;;;;;35.25;19.55;;;6.50;99.90;;;;;;5096704;28;20028;-55
2022/09/23 02:15:28;;;;;;;33.65;17.80;;;6.50;99.90;;;;;;5096655;28;20024;-55
2022/09/23 02:18:07;;;;;;;35.88;18.92;;;6.40;99.90;;;;;;5096728;28;20040;-55
2022/09/23 02:20:38;;;;;;;34.00;18.38;;;6.40;99.90;;;;;;5096454;28;20028;-55
2022/09/23 02:23:20;;;;;;;;;;;6.40;99.90;;;;;;5096994;28;20032;-55
2022/09/23 02:26:24;;;;;;;40.10;21.80;;;6.40;99.90;;;;;;5096535;28;19908;-55
2022/09/23 02:29:20;;;;;;;38.42;20.10;;;6.30;99.90;;;;;;5096351;28;20024;-55
2022/09/23 02:32:11;;;;;;;35.78;18.83;;;6.30;99.90;;;;;;5096678;28;20036;-55
2022/09/23 02:35:02;;;;;;;34.28;18.35;;;6.40;99.90;;;;;;5096433;28;20111;-56
2022/09/23 02:37:42;;;;;;;33.78;17.45;;;6.40;99.90;;;;;;5096390;28;20028;-55
2022/09/23 02:40:24;;;;;;;35.60;17.33;;;6.40;99.90;;;;;;5087018;28;20052;-55
2022/09/23 02:43:18;;;;;;;37.67;17.23;;;6.50;99.90;;;;;;5058052;28;20030;-55
2022/09/23 02:45:45;;;;;;;32.50;16.90;;;6.40;99.90;;;;;;5073780;28;20052;-55
2022/09/23 02:48:17;;;;;;;29.45;16.92;;;6.40;99.90;;;;;;5075777;28;20021;-55
2022/09/23 02:50:44;;;;;;;36.40;18.23;;;6.40;99.90;;;;;;5075782;28;20063;-55
2022/09/23 02:53:10;;;;;;;38.45;18.30;;;6.30;99.90;;;;;;5075890;28;20035;-55
2022/09/23 02:55:36;;;;;;;37.97;17.33;;;6.20;99.90;;;;;;5075613;28;20033;-55
2022/09/23 02:58:04;;;;;;;35.05;17.75;;;6.20;99.90;;;;;;5075404;28;20043;-56
2022/09/23 03:00:57;;;;;;;32.40;17.85;;;6.30;99.90;;;;;;5075214;28;20033;-55
2022/09/23 03:04:08;;;;;;;28.05;16.58;;;6.20;99.90;;;;;;5074002;28;20035;-55
2022/09/23 03:06:59;;;;;;;30.08;16.80;;;6.20;99.90;;;;;;5030440;28;20048;-55
2022/09/23 03:09:54;;;;;;;28.23;15.98;;;6.30;99.90;;;;;;5075440;28;20359;-55
2022/09/23 03:12:34;;;;;;;30.67;16.77;;;6.50;99.90;;;;;;5075176;28;20020;-55
2022/09/23 03:15:03;;;;;;;37.30;19.58;;;6.60;99.90;;;;;;5075391;28;20028;-55
2022/09/23 03:17:37;;;;;;;43.55;21.38;;;6.60;99.90;;;;;;5075288;28;20355;-55
2022/09/23 03:20:24;;;;;;;50.28;23.75;;;6.50;99.90;;;;;;5074883;28;20519;-55
2022/09/23 03:22:55;;;;;;;47.17;23.17;;;6.40;99.90;;;;;;5075018;28;20398;-55
2022/09/23 03:25:24;;;;;;;37.50;18.70;;;6.20;99.90;;;;;;5075014;28;20025;-55
2022/09/23 03:27:56;;;;;;;28.23;16.30;;;6.40;99.90;;;;;;5073857;28;20032;-55
2022/09/23 03:30:23;;;;;;;32.72;17.20;;;6.50;99.90;;;;;;5074857;28;20028;-55
2022/09/23 03:32:50;;;;;;;33.83;17.58;;;6.60;99.90;;;;;;5074976;28;20067;-55
2022/09/23 03:35:17;;;;;;;38.88;18.50;;;6.70;99.90;;;;;;5074785;28;20025;-55
2022/09/23 03:37:45;;;;;;;38.17;18.73;;;6.70;99.90;;;;;;5074970;28;20021;-55
2022/09/23 03:40:28;;;;;;;35.70;19.30;;;6.70;99.90;;;;;;5084093;28;20048;-55
2022/09/23 03:42:56;;;;;;;31.25;17.95;;;6.90;99.90;;;;;;5095038;28;20054;-55
2022/09/23 03:45:28;;;;;;;37.20;19.48;;;6.90;99.90;;;;;;5095203;28;20409;-55
2022/09/23 03:47:54;;;;;;;35.30;19.15;;;6.70;99.90;;;;;;5094734;28;20024;-55
2022/09/23 03:50:20;;;;;;;35.10;18.33;;;6.60;99.90;;;;;;5095005;28;20035;-55
2022/09/23 03:52:48;;;;;;;33.85;17.77;;;6.80;99.90;;;;;;5094890;28;20024;-55
2022/09/23 03:55:15;;;;;;;29.85;15.98;;;6.80;99.90;;;;;;5093719;28;20034;-55
2022/09/23 03:57:42;;;;;;;27.85;15.85;;;6.70;99.90;;;;;;5094910;28;20028;-55
2022/09/23 04:00:09;;;;;;;30.60;17.40;;;6.50;99.90;;;;;;5094562;28;20032;-55
2022/09/23 04:02:38;;;;;;;29.48;15.75;;;6.50;99.90;;;;;;5094693;28;20073;-55
2022/09/23 04:05:04;;;;;;;28.10;15.98;;;6.30;99.90;;;;;;5094649;28;20273;-55
2022/09/23 04:07:30;;;;;;;30.92;16.05;;;6.40;99.90;;;;;;5094728;28;20099;-55
2022/09/23 04:09:56;;;;;;;31.08;16.65;;;6.40;99.90;;;;;;5094571;28;20449;-55
2022/09/23 04:12:22;;;;;;;36.60;18.83;;;6.50;99.90;;;;;;5094567;28;20526;-55
2022/09/23 04:14:48;;;;;;;37.50;20.90;;;6.60;99.90;;;;;;5076534;28;20038;-55
2022/09/23 04:17:14;;;;;;;33.47;18.52;;;6.50;99.90;;;;;;5094465;28;20620;-55
2022/09/23 04:19:40;;;;;;;36.25;18.85;;;6.60;99.90;;;;;;5094758;28;20039;-55
2022/09/23 04:22:07;;;;;;;33.53;17.02;;;6.50;99.90;;;;;;5094418;28;20035;-55
2022/09/23 04:24:33;;;;;;;34.38;17.17;;;6.40;99.90;;;;;;5094362;28;20055;-55
2022/09/23 04:26:59;;;;;;;38.78;21.67;;;6.20;99.90;;;;;;5094378;28;20027;-55
2022/09/23 04:29:26;;;;;;;35.33;18.55;;;6.20;99.90;;;;;;5094438;28;20062;-55
2022/09/23 04:31:52;;;;;;;36.30;19.20;;;6.10;99.90;;;;;;5094503;28;20032;-55
2022/09/23 04:34:19;;;;;;;36.90;19.00;;;6.10;99.90;;;;;;5094663;28;20024;-55
2022/09/23 04:36:46;;;;;;;36.67;18.50;;;6.10;99.90;;;;;;5094334;28;20111;-55
2022/09/23 04:39:13;;;;;;;31.02;17.13;;;6.10;99.90;;;;;;5094135;28;20060;-55
2022/09/23 04:41:40;;;;;;;34.08;17.77;;;6.10;99.90;;;;;;5076126;28;20389;-55
2022/09/23 04:44:06;;;;;;;41.10;18.83;;;6.20;99.90;;;;;;5094231;28;20023;-55
2022/09/23 04:46:32;;;;;;;38.50;20.02;;;6.20;99.90;;;;;;5094516;28;20028;-55
2022/09/23 04:48:58;;;;;;;41.75;20.25;;;6.20;99.90;;;;;;5094228;28;20035;-55
2022/09/23 04:51:26;;;;;;;40.03;20.25;;;6.10;99.90;;;;;;5094361;28;20038;-55
2022/09/23 04:53:53;;;;;;;48.60;20.08;;;6.10;99.90;;;;;;5094182;28;20044;-55
2022/09/23 04:56:25;;;;;;;47.17;21.92;;;6.40;99.90;;;;;;5094193;28;20470;-55
2022/09/23 04:58:51;;;;;;;54.55;24.95;;;6.60;99.90;;;;;;5075950;28;20389;-55
2022/09/23 05:01:25;;;;;;;51.60;25.63;;;6.70;99.90;;;;;;5075885;28;20389;-55
2022/09/23 05:03:53;;;;;;;38.30;20.25;;;6.80;99.90;;;;;;5094068;28;20028;-55
2022/09/23 05:06:20;;;;;;;39.38;18.77;;;6.60;99.90;;;;;;5094233;28;20027;-55
2022/09/23 05:08:51;;;;;;;31.85;16.92;;;6.40;99.90;;;;;;5076119;28;20381;-55
2022/09/23 05:11:17;;;;;;;34.35;18.77;;;6.50;99.90;;;;;;5093891;28;20363;-55
2022/09/23 05:13:45;;;;;;;42.03;21.45;;;6.40;99.90;;;;;;5093900;28;20358;-55
2022/09/23 05:16:11;;;;;;;44.63;23.17;;;6.40;99.90;;;;;;5097837;28;20052;-54
2022/09/23 05:18:42;;;;;;;35.85;19.98;;;6.30;99.90;;;;;;5094395;28;20063;-55
2022/09/23 05:21:10;;;;;;;41.97;22.30;;;6.20;99.90;;;;;;5097998;28;20028;-55
2022/09/23 05:23:37;;;;;;;38.38;20.27;;;6.10;99.90;;;;;;5098403;28;20017;-55
2022/09/23 05:26:10;;;;;;;41.58;20.88;;;6.30;99.90;;;;;;5098383;28;20028;-55
2022/09/23 05:28:38;;;;;;;48.28;23.80;;;6.50;99.90;;;;;;5098204;28;20370;-54
2022/09/23 05:31:13;;;;;;;51.20;26.30;;;6.60;99.90;;;;;;5098357;28;20035;-55
2022/09/23 05:33:40;;;;;;;64.28;32.25;;;6.90;99.90;;;;;;5098039;28;20392;-55
2022/09/23 05:36:06;;;;;;;70.68;33.28;;;6.70;99.90;;;;;;5097379;28;20024;-55
2022/09/23 05:38:33;;;;;;;73.55;33.75;;;6.40;99.90;;;;;;5079076;28;20035;-55
2022/09/23 05:41:04;;;;;;;74.93;35.90;;;6.40;99.90;;;;;;5105805;28;20104;-55
2022/09/23 05:43:30;;;;;;;72.03;34.13;;;6.40;99.90;;;;;;5117629;28;20020;-55
2022/09/23 05:46:08;;;;;;;83.72;36.05;;;6.40;99.90;;;;;;5117320;28;20027;-55
2022/09/23 05:48:35;;;;;;;63.88;32.35;;;6.70;99.90;;;;;;5117044;28;20442;-55
2022/09/23 05:51:02;;;;;;;79.03;36.63;;;6.80;99.90;;;;;;5117204;28;20032;-55
2022/09/23 05:53:29;;;;;;;77.03;36.17;;;6.90;99.90;;;;;;5118043;28;20034;-55
2022/09/23 05:55:58;;;;;;;76.90;39.35;;;6.80;99.90;;;;;;5117982;28;20054;-55
2022/09/23 05:58:24;;;;;;;91.10;40.70;;;6.70;99.90;;;;;;5097547;28;20354;-55
2022/09/23 06:00:51;;;;;;;89.55;41.85;;;6.90;99.90;;;;;;5113360;28;20112;-55
2022/09/23 06:03:19;;;;;;;87.55;41.83;;;7.10;99.90;;;;;;5094866;28;20093;-55
2022/09/23 06:05:45;;;;;;;106.32;48.60;;;7.10;99.90;;;;;;5089284;28;20079;-55
2022/09/23 06:08:11;;;;;;;111.60;50.88;;;7.10;99.90;;;;;;5114173;28;20022;-55
2022/09/23 06:10:42;;;;;;;108.95;48.88;;;7.00;99.90;;;;;;5115651;28;20468;-55
2022/09/23 06:13:09;;;;;;;95.15;45.45;;;7.20;99.90;;;;;;5116959;28;20092;-55
2022/09/23 06:15:36;;;;;;;109.25;48.50;;;7.30;99.90;;;;;;5116775;28;20039;-55
2022/09/23 06:18:03;;;;;;;114.25;50.17;;;7.40;99.90;;;;;;5103128;27;20042;-55
2022/09/23 06:20:29;;;;;;;126.47;54.03;;;7.40;99.90;;;;;;5096220;28;20060;-55
2022/09/23 06:23:00;;;;;;;129.13;52.70;;;7.50;99.90;;;;;;5095904;28;20473;-55
2022/09/23 06:25:27;;;;;;;158.93;65.03;;;7.50;99.90;;;;;;5095996;28;20040;-56
2022/09/23 06:27:54;;;;;;;148.45;60.30;;;7.50;99.90;;;;;;5127923;27;20041;-55
2022/09/23 06:30:21;;;;;;;123.88;51.67;;;7.50;99.90;;;;;;5116522;28;20063;-55
2022/09/23 06:32:52;;;;;;;110.38;48.05;;;7.70;99.90;;;;;;5116455;28;20428;-55
2022/09/23 06:35:19;;;;;;;;;;;7.80;99.90;;;;;;5117054;28;20035;-55
2022/09/23 06:37:45;;;;;;;102.70;41.42;;;7.90;99.90;;;;;;5097882;28;20253;-56
2022/09/23 06:40:13;;;;;;;102.05;38.97;;;8.00;99.90;;;;;;5116123;28;20580;-55
2022/09/23 06:42:40;;;;;;;99.43;40.03;;;8.10;99.90;;;;;;5116601;28;20380;-56
2022/09/23 06:45:10;;;;;;;110.03;38.47;;;8.20;99.90;;;;;;5116236;28;20059;-56
2022/09/23 06:47:36;;;;;;;101.72;38.03;;;8.30;99.90;;;;;;5116401;28;20358;-56
2022/09/23 06:50:03;;;;;;;112.38;40.08;;;8.50;99.90;;;;;;5116231;28;20026;-55
2022/09/23 06:52:29;;;;;;;146.65;49.58;;;8.60;99.90;;;;;;5117002;28;20024;-55
2022/09/23 06:54:56;;;;;;;125.95;46.15;;;8.60;99.90;;;;;;5117077;28;20135;-55
2022/09/23 06:57:23;;;;;;;137.57;48.40;;;8.60;99.90;;;;;;5116773;28;20526;-55
2022/09/23 06:59:49;;;;;;;132.82;50.55;;;8.50;99.90;;;;;;5116776;28;20138;-55
2022/09/23 07:02:15;;;;;;;104.72;44.38;;;8.40;99.90;;;;;;5116285;28;20377;-56
2022/09/23 07:04:41;;;;;;;107.95;43.50;;;8.80;99.90;;;;;;5097535;28;20020;-56
2022/09/23 07:07:09;;;;;;;105.03;39.92;;;9.20;99.90;;;;;;5115882;28;20028;-56
2022/09/23 07:09:35;;;;;;;124.60;50.05;;;9.40;99.90;;;;;;5097763;28;20035;-56
2022/09/23 07:12:01;;;;;;;118.85;51.78;;;9.70;99.90;;;;;;5096139;28;20080;-56
2022/09/23 07:14:27;;;;;;;108.30;49.05;;;9.50;99.90;;;;;;5116147;28;20035;-56
2022/09/23 07:16:53;;;;;;;114.03;46.78;;;9.60;99.90;;;;;;5106105;28;20027;-56
2022/09/23 07:19:25;;;;;;;94.05;39.65;;;9.80;99.90;;;;;;5115787;28;20031;-56
2022/09/23 07:21:53;;;;;;;93.40;40.13;;;9.90;99.90;;;;;;5115298;28;20554;-56
2022/09/23 07:24:19;;;;;;;91.60;40.75;;;9.90;99.90;;;;;;5115640;28;20031;-56
2022/09/23 07:26:45;;;;;;;111.07;41.08;;;10.10;99.90;;;;;;5115308;28;20110;-55
2022/09/23 07:29:12;;;;;;;90.53;39.47;;;10.20;99.90;;;;;;5114814;28;20028;-56
2022/09/23 07:31:42;;;;;;;101.35;40.55;;;10.40;99.90;;;;;;5081188;28;20119;-56
2022/09/23 07:34:10;;;;;;;85.25;38.60;;;10.40;99.90;;;;;;5113714;28;20153;-56
2022/09/23 07:36:39;;;;;;;89.50;39.83;;;10.50;99.90;;;;;;5096240;28;20084;-56
2022/09/23 07:39:07;;;;;;;84.50;37.60;;;10.30;99.90;;;;;;5114714;28;20790;-56
2022/09/23 07:41:34;;;;;;;86.95;37.17;;;10.70;99.90;;;;;;5114360;28;20023;-55
2022/09/23 07:44:10;;;;;;;88.53;38.90;;;11.40;99.90;;;;;;5113843;28;20530;-55
2022/09/23 07:46:40;;;;;;;97.15;38.40;;;11.80;99.90;;;;;;5111603;28;20028;-56
2022/09/23 07:49:07;;;;;;;90.03;38.42;;;12.40;99.90;;;;;;5114640;28;20020;-56
2022/09/23 07:51:39;;;;;;;107.13;38.83;;;13.00;99.90;;;;;;5095879;28;20028;-56
2022/09/23 07:54:07;;;;;;;89.10;36.40;;;13.30;99.90;;;;;;5113989;28;20039;-56
2022/09/23 07:56:34;;;;;;;63.45;31.90;;;13.80;99.90;;;;;;5114806;28;20122;-56
2022/09/23 07:59:02;;;;;;;62.80;25.13;;;14.20;99.90;;;;;;5114979;28;20034;-56
2022/09/23 08:01:30;;;;;;;60.00;27.83;;;14.40;99.90;;;;;;5112646;28;20546;-56
2022/09/23 08:04:02;;;;;;;58.90;28.60;;;14.50;99.90;;;;;;5093823;28;20022;-56
2022/09/23 08:06:29;;;;;;;73.25;27.27;;;15.00;99.90;;;;;;5114132;28;20098;-56
2022/09/23 08:08:59;;;;;;;59.67;25.42;;;15.40;99.90;;;;;;5115737;28;20047;-56
2022/09/23 08:11:26;;;;;;;57.50;24.27;;;14.90;99.90;;;;;;5112390;28;20023;-56
2022/09/23 08:13:53;;;;;;;62.50;24.05;;;15.60;99.90;;;;;;5115341;28;20027;-56
2022/09/23 08:16:20;;;;;;;80.72;30.30;;;16.10;96.30;;;;;;5109698;28;20028;-56
2022/09/23 08:18:47;;;;;;;93.82;30.98;;;16.10;97.20;;;;;;5104376;28;20469;-56
2022/09/23 08:21:19;;;;;;;71.35;28.65;;;16.60;97.10;;;;;;5111405;28;20507;-56
2022/09/23 08:23:45;;;;;;;80.80;31.80;;;16.90;96.20;;;;;;5113386;28;20354;-56
2022/09/23 08:26:11;;;;;;;87.70;33.92;;;17.50;92.90;;;;;;5095514;28;20024;-56
2022/09/23 08:28:37;;;;;;;85.82;34.60;;;17.70;90.60;;;;;;5114725;28;20031;-56
2022/09/23 08:31:03;;;;;;;80.65;32.85;;;18.10;88.70;;;;;;5113887;28;20023;-56
2022/09/23 08:33:29;;;;;;;79.68;30.83;;;18.50;87.00;;;;;;5114449;28;20034;-56
2022/09/23 08:36:02;;;;;;;83.57;33.50;;;18.50;83.60;;;;;;5114602;28;20530;-56
2022/09/23 08:38:28;;;;;;;84.60;30.77;;;19.30;85.80;;;;;;5114383;28;20035;-57
2022/09/23 08:41:13;;;;;;;92.35;35.15;;;19.30;78.10;;;;;;5112914;28;20054;-57
2022/09/23 08:43:44;;;;;;;95.65;35.45;;;18.70;82.70;;;;;;5114459;28;20059;-56
2022/09/23 08:46:10;;;;;;;98.22;34.67;;;18.60;79.80;;;;;;5111756;28;20107;-56
2022/09/23 08:48:42;;;;;;;93.78;33.47;;;19.20;81.10;;;;;;5112013;28;20016;-56
2022/09/23 08:51:29;;;;;;;124.97;41.83;;;19.40;74.80;;;;;;5116183;28;20089;-56
2022/09/23 08:53:57;;;;;;;84.07;28.63;;;19.70;75.50;;;;;;5096781;28;20504;-56
2022/09/23 08:56:23;;;;;;;100.70;33.45;;;19.90;67.80;;;;;;5094740;28;20104;-57
2022/09/23 08:59:07;;;;;;;104.35;35.10;;;19.80;69.60;;;;;;5112887;28;20088;-56
2022/09/23 09:01:53;;;;;;;63.42;23.33;;;19.20;71.40;;;;;;5112857;28;20031;-56
2022/09/23 09:04:36;;;;;;;87.82;30.80;;;19.30;71.30;;;;;;5100083;28;20066;-56
2022/09/23 09:07:17;;;;;;;112.45;34.15;;;19.50;71.80;;;;;;5116497;28;20030;-56
2022/09/23 09:09:51;;;;;;;127.45;38.10;;;19.90;72.10;;;;;;5117876;28;20035;-56
2022/09/23 09:12:32;;;;;;;107.35;34.30;;;20.30;71.00;;;;;;5117745;28;20549;-56
2022/09/23 09:15:09;;;;;;;95.05;30.77;;;20.80;67.50;;;;;;5118059;28;20051;-56
2022/09/23 09:17:58;;;;;;;96.40;31.35;;;20.40;63.20;;;;;;5118040;28;20385;-56
2022/09/23 09:20:56;;;;;;;89.80;28.77;;;20.30;62.90;;;;;;5116832;28;20028;-56
2022/09/23 09:23:52;;;;;;;86.57;29.58;;;20.80;64.30;;;;;;5117574;28;20030;-56
2022/09/23 09:26:40;;;;;;;88.82;29.15;;;20.60;61.40;;;;;;5100914;28;20381;-56
2022/09/23 09:29:14;;;;;;;89.55;30.00;;;20.90;63.50;;;;;;5115746;28;20030;-56
2022/09/23 09:31:43;;;;;;;91.53;28.80;;;21.30;60.90;;;;;;5115322;28;20383;-56
2022/09/23 09:34:15;;;;;;;90.60;27.92;;;22.10;59.00;;;;;;5118313;28;20034;-56
2022/09/23 09:37:10;;;;;;;82.60;25.23;;;22.30;56.90;;;;;;5115919;28;20040;-56
2022/09/23 09:39:36;;;;;;;79.10;24.67;;;22.30;56.80;;;;;;5117383;28;20027;-56
2022/09/23 09:42:04;;;;;;;73.35;23.27;;;22.10;57.10;;;;;;5126727;27;20518;-56
2022/09/23 09:44:47;;;;;;;75.80;22.30;;;22.30;55.10;;;;;;5117673;28;20080;-56
2022/09/23 09:47:27;;;;;;;63.72;19.50;;;22.50;55.70;;;;;;5117762;28;20024;-56
2022/09/23 09:50:20;;;;;;;47.38;15.80;;;22.30;52.60;;;;;;5117002;28;20024;-56
2022/09/23 09:52:47;;;;;;;61.28;18.25;;;22.20;52.10;;;;;;5108584;28;20046;-56
2022/09/23 09:55:12;;;;;;;77.00;21.05;;;22.30;51.70;;;;;;5117539;28;20084;-57
2022/09/23 09:57:51;;;;;;;72.70;22.23;;;21.90;54.50;;;;;;5118201;28;20023;-56
2022/09/23 10:00:26;;;;;;;53.58;17.30;;;22.30;54.20;;;;;;5117563;28;20028;-56
2022/09/23 10:02:54;;;;;;;47.08;15.02;;;22.80;50.60;;;;;;5117553;28;20024;-56
2022/09/23 10:05:46;;;;;;;44.05;14.63;;;23.50;50.50;;;;;;5116471;28;20538;-56
2022/09/23 10:08:32;;;;;;;58.30;15.80;;;23.60;49.20;;;;;;5116938;28;20023;-56
2022/09/23 10:10:58;;;;;;;54.92;17.40;;;23.80;47.00;;;;;;5094740;28;20027;-56
2022/09/23 10:13:25;;;;;;;43.83;14.43;;;23.90;47.50;;;;;;5115920;28;20080;-56
2022/09/23 10:15:55;;;;;;;43.28;14.05;;;23.50;46.70;;;;;;5115579;28;20058;-56
2022/09/23 10:18:37;;;;;;;46.40;12.98;;;23.40;46.50;;;;;;5116883;28;20057;-57
2022/09/23 10:21:20;;;;;;;52.65;14.85;;;23.40;44.90;;;;;;5094131;28;20035;-56
2022/09/23 10:23:54;;;;;;;40.25;12.90;;;24.00;46.00;;;;;;5116519;28;20020;-57
2022/09/23 10:26:32;;;;;;;37.78;12.80;;;24.20;45.20;;;;;;5095240;28;20024;-57
2022/09/23 10:29:23;;;;;;;32.00;11.40;;;24.30;42.10;;;;;;5107544;28;20024;-57
2022/09/23 10:31:52;;;;;;;;;;;24.50;46.50;;;;;;5107818;28;20044;-56
2022/09/23 10:34:27;;;;;;;22.90;8.77;;;24.80;42.60;;;;;;5115974;28;20399;-56
2022/09/23 10:37:13;;;;;;;23.13;9.05;;;23.80;42.60;;;;;;5115523;28;20106;-57
2022/09/23 10:48:40;;;;;;;24.70;9.05;;;23.80;42.10;;;;;;5116927;28;20027;-57
2022/09/23 10:51:33;;;;;;;24.65;10.27;;;23.70;44.90;;;;;;5097832;28;20028;-57
2022/09/23 10:54:12;;;;;;;21.00;9.32;;;23.30;47.40;;;;;;5117009;28;20503;-57
2022/09/23 10:56:56;;;;;;;12.70;7.68;;;23.90;43.60;;;;;;5116940;28;20023;-57
2022/09/23 10:59:39;;;;;;;13.43;6.38;;;23.70;43.70;;;;;;5097216;28;20039;-57
2022/09/23 11:02:39;;;;;;;18.23;8.25;;;23.00;42.00;;;;;;5116771;28;20058;-56
2022/09/23 11:05:20;;;;;;;20.85;5.80;;;24.10;39.70;;;;;;5116695;28;20080;-57
2022/09/23 11:08:18;;;;;;;11.07;5.88;;;24.30;39.60;;;;;;5116488;28;20035;-57
2022/09/23 11:11:20;;;;;;;10.27;5.40;;;24.30;38.10;;;;;;5077522;28;20047;-57
2022/09/23 11:13:59;;;;;;;13.40;7.00;;;24.00;37.40;;;;;;5098385;28;20128;-57
2022/09/23 11:16:49;;;;;;;16.42;7.75;;;24.10;35.60;;;;;;5116450;28;20438;-57
2022/09/23 11:19:33;;;;;;;;;;;24.00;36.90;;;;;;5098419;28;20039;-57
2022/09/23 11:22:36;;;;;;;21.98;8.57;;;24.40;35.60;;;;;;5115316;28;19915;-56
2022/09/23 11:25:05;;;;;;;21.25;8.20;;;24.40;39.90;;;;;;5115739;28;20012;-57
2022/09/23 11:27:52;;;;;;;16.10;8.65;;;24.40;38.00;;;;;;5115859;28;20408;-56
2022/09/23 11:30:19;;;;;;;15.98;8.48;;;23.90;35.70;;;;;;5115526;28;20024;-56
2022/09/23 11:33:23;;;;;;;14.27;6.57;;;24.60;38.40;;;;;;5116201;28;20047;-57
2022/09/23 11:35:54;;;;;;;10.15;6.00;;;25.00;36.40;;;;;;5116321;28;20135;-57
2022/09/23 11:38:25;;;;;;;12.88;5.65;;;24.50;36.20;;;;;;5115494;28;20024;-57
2022/09/23 11:41:11;;;;;;;17.67;6.95;;;24.90;36.00;;;;;;5093890;28;20037;-57
2022/09/23 11:43:39;;;;;;;9.48;5.75;;;24.90;35.30;;;;;;5095619;28;20111;-57
2022/09/23 11:46:08;;;;;;;14.55;7.88;;;25.00;34.90;;;;;;5095347;28;20484;-57
2022/09/23 11:48:52;;;;;;;13.83;6.60;;;25.20;33.20;;;;;;5094806;28;20031;-56
2022/09/23 11:51:30;;;;;;;9.90;5.35;;;25.20;32.50;;;;;;5094651;28;20040;-57
2022/09/23 11:54:00;;;;;;;11.63;6.20;;;25.20;34.20;;;;;;5094890;28;20039;-57
2022/09/23 11:56:45;;;;;;;19.75;7.68;;;25.20;32.10;;;;;;5092545;28;20647;-57
2022/09/23 11:59:50;;;;;;;12.77;5.55;;;25.10;31.50;;;;;;5094551;28;20164;-57
2022/09/23 12:02:26;;;;;;;9.05;5.90;;;25.10;36.10;;;;;;5094711;28;20477;-57
2022/09/23 12:05:26;;;;;;;10.32;4.90;;;24.50;32.50;;;;;;5094408;28;20063;-56
2022/09/23 12:08:02;;;;;;;;;;;24.60;33.40;;;;;;5061372;28;20462;-57
2022/09/23 12:10:55;;;;;;;52.35;40.08;;;24.50;32.90;;;;;;5094604;28;19939;-56
2022/09/23 12:13:42;;;;;;;9.95;5.00;;;24.70;32.80;;;;;;5087355;28;20036;-57
2022/09/23 12:16:27;;;;;;;11.73;4.75;;;25.20;34.90;;;;;;5094381;28;20443;-57
2022/09/23 12:19:09;;;;;;;7.07;4.15;;;25.60;33.90;;;;;;5094335;28;20024;-57
2022/09/23 12:21:48;;;;;;;12.00;5.25;;;25.60;32.30;;;;;;5093920;28;20028;-56
2022/09/23 12:24:35;;;;;;;4.80;3.67;;;25.20;32.70;;;;;;5093293;28;20031;-57
2022/09/23 12:27:06;;;;;;;8.73;4.53;;;25.20;32.70;;;;;;5094326;28;20070;-57
2022/09/23 12:29:34;;;;;;;7.10;4.22;;;25.40;34.40;;;;;;5094283;28;20027;-56
2022/09/23 12:32:00;;;;;;;8.45;4.13;;;25.20;34.30;;;;;;5094109;28;20032;-57
2022/09/23 12:34:35;;;;;;;13.05;4.30;;;24.50;33.80;;;;;;5094269;28;20059;-56
2022/09/23 12:37:03;;;;;;;10.00;4.38;;;24.50;32.40;;;;;;5093927;28;20378;-57
2022/09/23 12:39:33;;;;;;;6.57;4.10;;;25.00;34.40;;;;;;5087377;28;20116;-57
2022/09/23 12:42:01;;;;;;;;;;;25.50;36.50;;;;;;5085150;28;20107;-57
2022/09/23 12:44:43;;;;;;;11.77;4.30;;;25.50;33.90;;;;;;5080797;28;20341;-57
2022/09/23 12:47:35;;;;;;;9.07;4.68;;;25.70;36.90;;;;;;5073444;28;20412;-57
2022/09/23 12:50:01;;;;;;;10.18;3.95;;;25.70;32.50;;;;;;5076923;28;20032;-57
2022/09/23 12:52:32;;;;;;;6.55;3.60;;;25.50;31.40;;;;;;5091866;28;20389;-57
2022/09/23 12:55:23;;;;;;;8.88;3.47;;;25.40;32.50;;;;;;5094180;28;20107;-57
2022/09/23 12:57:49;;;;;;;7.47;3.53;;;25.40;30.40;;;;;;5091038;28;20048;-57
2022/09/23 13:00:25;;;;;;;10.45;5.03;;;25.10;32.40;;;;;;5093755;28;20044;-57
2022/09/23 13:08:39;;;;;;;8.93;3.50;;;24.60;34.50;;;;;;5094024;28;20034;-57
2022/09/23 13:11:21;;;;;;;8.70;4.38;;;24.50;33.80;;;;;;5084415;28;20036;-57
2022/09/23 13:13:49;;;;;;;7.55;4.30;;;24.10;32.70;;;;;;5083544;28;20047;-56
2022/09/23 13:16:32;;;;;;;11.73;5.72;;;24.30;31.50;;;;;;5088147;28;20392;-58
2022/09/23 13:19:01;;;;;;;13.38;4.60;;;24.20;34.10;;;;;;5074462;28;20064;-57
2022/09/23 13:21:42;;;;;;;10.85;5.45;;;24.10;38.50;;;;;;5074028;28;20029;-57
2022/09/23 13:24:29;;;;;;;6.05;3.28;;;24.50;36.80;;;;;;5073560;28;20511;-57